Brunei International Airport
WBSB : now visible

Airfield :











YOU CAN JOIN US ON...

 
LOGIN :

Register | Disclaimer

   EN    FR    IT 

 









Legend :    VFR   Marginal VFR   IFR   Intensive IFR   Very Intensive IFR
Visi :
Ceiling :
>= 8 km
>= 3000ft
5 to 8 km
1000 to 3000 ft
1500m to 5 km
500 to 1000 ft
800 to 1500m
200 to 500 ft
< 800m
< 200 ft
Symbols :   Thunderstorms  Fog  Heavy snow  Heavy precipitations  Wind > 20 kt






- Airport Elevation : 73 ft
- IATA code : BWN


WBSB - Brunei International

CURRENT METAR :
  • 121800Z 19003KT 5000 -SHRA SCT014 FEW015CB SCT140 BKN280 27/26 Q1011 NOSIG

EXPIRED METARs :
  • 121730Z 21002KT 9000 -SHRA SCT014 FEW015CB BKN280 28/25 Q1011 NOSIG
  • 121700Z 03003KT 9999 FEW015 BKN280 28/26 Q1011 NOSIG
  • 121630Z 02006KT 9999 FEW015 BKN280 28/26 Q1011 NOSIG
  • 121600Z 08003KT 9999 FEW015 BKN280 28/26 Q1011 NOSIG
  • 121530Z 03005KT 9999 FEW015 BKN280 28/25 Q1012 NOSIG

TAF TAF WBSB
Valid from the 12 at 18:00 until the 14 at 00:00 UTC


121700Z 1218/1400 14005KT 9999 FEW014
TEMPO 1220/1300 5000 TSRA SCT014 FEW015CB
BECMG 1302/1304 02010KT FEW016 FEW017CB



MET'MAP, your aeronautical weather chart ! - Copyright ORBIFLY December 2007 - Disclaimer

ORBIFLY MET'MAP TEAM :

Programming & Development : Alexandra Zaïnal
Concept & Development : Baudouin d'Aumeries
Co-Development & Prog : Marc-Olivier Méhu
Technical & hardware support : Manuel Goepfert

Contact : metmap@orbifly.com




SOURCES & CREDITS :

   NOAA       Earth
Advisory